Widefield, Colorado
Current Conditions -  °F | °C
As of 5:54 AM on Saturday 25 Oct 2014 (Local Time) from KCOS Reporting Station
Clear Clear  
Wind Chill: 52°   Ceiling: Unl
Heat Index: 52°   Visibility: 10mi
Dew Point: 17°   Wind: 7mph
Humidity: 25%   Direction: 10°N
Pressure: 30.25"   Gusts: NA
Location:  38.7481°N, 104.708°W
Report Text: KCOS 251154Z 01006KT 10SM CLR 11/M08 A3025 RMK AO2 SLP182 T01111083 10133 20078 55005
Loading
Personal Weather Stations






























Interactive Weather Map
Tropical Storm Tracking
New forecast layout! Learn more

10-Day Weather Forecast

Advertisements
Track Severe Weather on mobile